Vinnings, Georgia
Current Conditions -  °F | °C
As of 12:58 PM on Sunday 21 Dec 2014 (Local Time) from KMGE Reporting Station
Haze Haze  
Wind Chill: 45°   Ceiling: 1000
Heat Index: 49°   Visibility: 5mi
Dew Point: 45°   Wind: 8mph
Humidity: 86%   Direction: 70°ENE
Pressure: 30.14"   Gusts: NA
Location:  33.8691°N, 84.4633°W
Report Text: KMGE 211758Z 07007KT 5SM BR OVC010 09/07 A3014 RMK AO2A SLP209 T00920070 10092 20070 58019 $
Loading
Personal Weather Stations






























Interactive Weather Map New forecast layout! Learn more

10-Day Weather Forecast

Advertisements
Track Severe Weather on mobile